Time;durP1;ratioP1;P1;durP2;ratioP2;P2;SDS_P1;SDS_P2;PMS_P1;PMS_P2;Temp;Humidity;BMP_temperature;BMP_pressure;BME280_temperature;BME280_humidity;BME280_pressure;Samples;Min_cycle;Max_cycle;Signal;HPM_P1;HPM_P2
2023/05/06 00:00:28;;;;;;;13.48;6.38;;;16.10;59.30;;;;;;5021223;28;20429;-44
2023/05/06 00:02:58;;;;;;;8.45;6.40;;;16.10;59.20;;;;;;5022621;28;20437;-45
2023/05/06 00:05:26;;;;;;;8.32;7.13;;;16.10;59.30;;;;;;5022801;28;20468;-41
2023/05/06 00:07:54;;;;;;;7.18;5.90;;;16.10;59.20;;;;;;5022005;28;20053;-42
2023/05/06 00:10:21;;;;;;;9.00;6.70;;;16.10;59.20;;;;;;5021687;28;20061;-44
2023/05/06 00:12:49;;;;;;;9.45;7.47;;;16.10;59.20;;;;;;5021286;28;20604;-42
2023/05/06 00:15:16;;;;;;;14.00;8.02;;;16.00;59.20;;;;;;5021342;28;20057;-42
2023/05/06 00:17:43;;;;;;;9.48;7.93;;;16.00;59.20;;;;;;5023160;28;20505;-42
2023/05/06 00:20:13;;;;;;;12.13;8.85;;;16.00;59.20;;;;;;5022782;28;20049;-41
2023/05/06 00:22:40;;;;;;;9.82;7.55;;;16.00;59.20;;;;;;5022345;28;20394;-44
2023/05/06 00:25:08;;;;;;;10.18;7.47;;;16.00;59.20;;;;;;5020418;28;20045;-45
2023/05/06 00:27:35;;;;;;;11.63;7.93;;;16.00;59.20;;;;;;5022039;28;20398;-41
2023/05/06 00:30:03;;;;;;;11.27;7.88;;;16.00;59.20;;;;;;5020319;28;20064;-40
2023/05/06 00:32:30;;;;;;;12.13;8.65;;;15.90;59.20;;;;;;5020712;28;20052;-44
2023/05/06 00:34:57;;;;;;;8.65;7.38;;;15.90;59.20;;;;;;5022601;28;20049;-40
2023/05/06 00:37:26;;;;;;;11.70;7.68;;;15.90;59.20;;;;;;5021980;28;20061;-41
2023/05/06 00:39:53;;;;;;;9.57;7.63;;;15.80;59.20;;;;;;5021895;28;20410;-42
2023/05/06 00:42:22;;;;;;;11.07;7.75;;;15.80;59.20;;;;;;5021263;28;20053;-44
2023/05/06 00:44:49;;;;;;;10.07;7.78;;;15.80;59.30;;;;;;5020193;28;20056;-43
2023/05/06 00:47:18;;;;;;;8.15;7.25;;;15.80;59.30;;;;;;5023273;28;20059;-40
2023/05/06 00:49:47;;;;;;;10.27;7.25;;;15.70;59.30;;;;;;5025163;28;20501;-45
2023/05/06 00:52:15;;;;;;;9.75;7.30;;;15.70;59.30;;;;;;5025619;28;20490;-41
2023/05/06 00:54:45;;;;;;;8.40;6.90;;;15.70;59.20;;;;;;5026542;28;20051;-46
2023/05/06 00:57:12;;;;;;;9.73;6.93;;;15.70;59.20;;;;;;5025480;28;20061;-43
2023/05/06 00:59:39;;;;;;;8.57;6.75;;;15.70;59.20;;;;;;5024684;28;20057;-44
2023/05/06 01:02:07;;;;;;;10.10;6.82;;;15.70;59.20;;;;;;5025682;28;20049;-34
2023/05/06 01:04:36;;;;;;;10.82;7.00;;;15.60;59.20;;;;;;5035797;22;20049;-41
2023/05/06 01:07:12;;;;;;;9.60;6.72;;;15.60;59.20;;;;;;5006623;28;20077;-42
2023/05/06 01:09:42;;;;;;;8.30;6.53;;;15.60;59.30;;;;;;5003357;28;20413;-41
2023/05/06 01:12:24;;;;;;;8.90;6.75;;;15.60;59.20;;;;;;5007963;28;20042;-43
2023/05/06 01:15:01;;;;;;;9.73;7.00;;;15.60;59.20;;;;;;5004190;28;20053;-44
2023/05/06 01:17:31;;;;;;;8.88;6.70;;;15.50;59.20;;;;;;5006515;28;20065;-43
2023/05/06 01:20:01;;;;;;;7.88;6.28;;;15.60;59.10;;;;;;5006212;28;20050;-43
2023/05/06 01:22:29;;;;;;;8.20;5.88;;;15.50;59.10;;;;;;5004523;28;20054;-43
2023/05/06 01:24:58;;;;;;;7.28;5.63;;;15.50;59.10;;;;;;5005195;28;20085;-41
2023/05/06 01:27:25;;;;;;;7.65;5.82;;;15.50;59.10;;;;;;5005147;28;20057;-40
2023/05/06 01:29:52;;;;;;;8.43;6.53;;;15.50;59.10;;;;;;5002730;28;20425;-42
2023/05/06 01:32:37;;;;;;;9.10;6.15;;;15.40;59.10;;;;;;5005818;28;20054;-40
2023/05/06 01:35:13;;;;;;;10.23;6.32;;;15.40;59.20;;;;;;5004780;28;20413;-42
2023/05/06 01:37:47;;;;;;;6.90;5.72;;;15.40;59.10;;;;;;5005399;28;20046;-48
2023/05/06 01:40:18;;;;;;;8.43;6.35;;;15.40;59.20;;;;;;5005697;28;20061;-41
2023/05/06 01:42:48;;;;;;;9.48;6.65;;;15.30;59.10;;;;;;5004751;28;20058;-41
2023/05/06 01:45:17;;;;;;;8.55;6.80;;;15.30;59.10;;;;;;5003923;28;20057;-39
2023/05/06 01:47:45;;;;;;;9.15;6.97;;;15.30;59.10;;;;;;5005160;28;20077;-43
2023/05/06 01:50:12;;;;;;;10.23;7.80;;;15.30;59.10;;;;;;5004976;28;20528;-40
2023/05/06 01:52:40;;;;;;;9.27;6.90;;;15.20;59.10;;;;;;5005183;28;20058;-40
2023/05/06 01:55:08;;;;;;;9.82;7.55;;;15.20;59.10;;;;;;5004600;28;20163;-38
2023/05/06 01:57:36;;;;;;;10.93;7.38;;;15.20;59.20;;;;;;5004757;28;20141;-42
2023/05/06 02:00:05;;;;;;;10.57;7.18;;;15.20;59.20;;;;;;5002429;28;20049;-45
2023/05/06 02:02:32;;;;;;;10.05;7.75;;;15.20;59.20;;;;;;5007180;28;20497;-42
2023/05/06 02:04:59;;;;;;;9.65;8.13;;;15.20;59.30;;;;;;5004711;28;20597;-41
2023/05/06 02:07:26;;;;;;;10.65;8.35;;;15.10;59.30;;;;;;5004767;28;20065;-39
2023/05/06 02:09:53;;;;;;;9.93;7.68;;;15.10;59.30;;;;;;5006005;28;20429;-39
2023/05/06 02:12:21;;;;;;;12.70;7.80;;;15.10;59.30;;;;;;5005362;28;20054;-43
2023/05/06 02:14:49;;;;;;;9.50;7.15;;;15.10;59.30;;;;;;5001779;28;20049;-41
2023/05/06 02:17:16;;;;;;;9.35;7.28;;;15.10;59.30;;;;;;5004332;28;20046;-40
2023/05/06 02:19:44;;;;;;;11.57;8.07;;;15.10;59.30;;;;;;5004898;28;20494;-41
2023/05/06 02:22:11;;;;;;;9.50;7.47;;;15.00;59.30;;;;;;5004083;28;20045;-42
2023/05/06 02:24:38;;;;;;;11.48;7.82;;;15.00;59.30;;;;;;5003881;28;20049;-42
2023/05/06 02:27:05;;;;;;;9.60;7.35;;;15.00;59.30;;;;;;5005535;28;20058;-42
2023/05/06 02:29:33;;;;;;;11.35;8.00;;;15.00;59.30;;;;;;5001122;28;20058;-41
2023/05/06 02:32:02;;;;;;;11.45;8.52;;;15.00;59.30;;;;;;5001946;28;20053;-39
2023/05/06 02:34:29;;;;;;;12.73;9.10;;;14.90;59.30;;;;;;5004642;28;20054;-43
2023/05/06 02:36:57;;;;;;;11.45;8.25;;;14.90;59.30;;;;;;5002824;28;20057;-40
2023/05/06 02:39:24;;;;;;;12.15;8.40;;;14.90;59.30;;;;;;5003355;28;20050;-40
2023/05/06 02:41:51;;;;;;;9.38;7.22;;;14.90;59.30;;;;;;5005306;28;20050;-40
2023/05/06 02:44:18;;;;;;;10.23;7.70;;;14.90;59.30;;;;;;5004563;28;20054;-43
2023/05/06 02:46:45;;;;;;;13.25;9.02;;;14.80;59.30;;;;;;5001970;28;20045;-42
2023/05/06 02:49:14;;;;;;;10.00;7.30;;;14.80;59.30;;;;;;5001058;28;20061;-43
2023/05/06 02:51:41;;;;;;;8.40;7.25;;;14.80;59.30;;;;;;5002661;28;20053;-39
2023/05/06 02:54:08;;;;;;;8.73;6.20;;;14.80;59.30;;;;;;5001386;28;20049;-41
2023/05/06 02:56:36;;;;;;;11.65;7.55;;;14.70;59.30;;;;;;5005997;28;20447;-44
2023/05/06 02:59:04;;;;;;;10.43;7.35;;;14.70;59.30;;;;;;5004174;28;20133;-47
2023/05/06 03:01:31;;;;;;;14.05;8.10;;;14.70;59.30;;;;;;5002418;28;20401;-40
2023/05/06 03:03:58;;;;;;;10.50;8.02;;;14.70;59.30;;;;;;5005915;28;20054;-41
2023/05/06 03:06:27;;;;;;;10.98;7.20;;;14.70;59.30;;;;;;5002332;28;20621;-40
2023/05/06 03:08:54;;;;;;;10.02;7.15;;;14.60;59.30;;;;;;5006560;28;20069;-40
2023/05/06 03:11:21;;;;;;;9.25;7.25;;;14.60;59.30;;;;;;5005800;28;20084;-39
2023/05/06 03:13:48;;;;;;;8.85;7.00;;;14.60;59.30;;;;;;5003766;28;20060;-38
2023/05/06 03:16:16;;;;;;;9.75;7.63;;;14.60;59.40;;;;;;5001506;28;20054;-39
2023/05/06 03:18:43;;;;;;;8.18;6.78;;;14.50;59.40;;;;;;5005521;28;20057;-39
2023/05/06 03:21:11;;;;;;;8.80;7.07;;;14.50;59.40;;;;;;5003771;28;20057;-44
2023/05/06 03:23:40;;;;;;;10.55;7.78;;;14.50;59.40;;;;;;4974453;28;20050;-45
2023/05/06 03:26:07;;;;;;;7.78;6.40;;;14.50;59.50;;;;;;4966019;28;20050;-51
2023/05/06 03:28:34;;;;;;;7.72;6.07;;;14.50;59.50;;;;;;4963430;28;20443;-49
2023/05/06 03:31:01;;;;;;;7.00;5.88;;;14.40;59.50;;;;;;4961430;28;20054;-47
2023/05/06 03:33:28;;;;;;;7.45;5.88;;;14.50;59.50;;;;;;4965850;28;20059;-49
2023/05/06 03:35:56;;;;;;;7.82;6.10;;;14.40;59.50;;;;;;4964737;28;20506;-49
2023/05/06 03:38:23;;;;;;;7.82;6.45;;;14.40;59.50;;;;;;4964424;28;20078;-49
2023/05/06 03:40:52;;;;;;;7.20;5.63;;;14.40;59.60;;;;;;4963056;28;20051;-51
2023/05/06 03:43:20;;;;;;;8.00;6.40;;;14.40;59.60;;;;;;4963749;28;20055;-51
2023/05/06 03:45:47;;;;;;;8.23;6.32;;;14.40;59.60;;;;;;4958622;28;20055;-47
2023/05/06 03:48:14;;;;;;;9.18;6.28;;;14.30;59.60;;;;;;4961107;28;20058;-47
2023/05/06 03:50:42;;;;;;;16.17;9.05;;;14.30;59.60;;;;;;4963975;28;20058;-48
2023/05/06 03:53:09;;;;;;;16.50;9.07;;;14.30;59.60;;;;;;4961803;28;20494;-47
2023/05/06 03:55:36;;;;;;;11.10;7.22;;;14.30;59.60;;;;;;4962233;28;20486;-50
2023/05/06 03:58:05;;;;;;;7.57;5.82;;;14.30;59.60;;;;;;4963165;28;20066;-45
2023/05/06 04:00:32;;;;;;;7.13;5.63;;;14.30;59.60;;;;;;4961344;28;20119;-50
2023/05/06 04:03:02;;;;;;;7.15;5.70;;;14.30;59.60;;;;;;4960082;28;20514;-50
2023/05/06 04:05:29;;;;;;;6.72;5.40;;;14.20;59.60;;;;;;4961819;28;20058;-52
2023/05/06 04:07:57;;;;;;;6.03;5.22;;;14.20;59.50;;;;;;4964343;28;20043;-47
2023/05/06 04:10:24;;;;;;;5.80;5.07;;;14.20;59.50;;;;;;4963739;28;20070;-52
2023/05/06 04:12:51;;;;;;;6.78;5.60;;;14.20;59.60;;;;;;4961130;28;20438;-50
2023/05/06 04:15:20;;;;;;;6.47;5.10;;;14.20;59.60;;;;;;4962084;28;20047;-51
2023/05/06 04:17:47;;;;;;;6.05;4.97;;;14.20;59.70;;;;;;4960067;28;20061;-48
2023/05/06 04:20:15;;;;;;;6.20;5.47;;;14.20;59.60;;;;;;4962484;28;20055;-50
2023/05/06 04:22:42;;;;;;;9.75;6.07;;;14.20;59.70;;;;;;4965685;28;20051;-50
2023/05/06 04:25:10;;;;;;;9.27;4.85;;;14.20;59.70;;;;;;4964041;28;20061;-48
2023/05/06 04:27:38;;;;;;;5.65;4.60;;;14.10;59.70;;;;;;4966464;28;20495;-53
2023/05/06 04:30:06;;;;;;;6.85;5.05;;;14.20;59.70;;;;;;4963562;28;20057;-44
2023/05/06 04:32:35;;;;;;;6.38;4.70;;;14.10;59.70;;;;;;4964429;28;20530;-45
2023/05/06 04:35:02;;;;;;;8.77;4.55;;;14.10;59.80;;;;;;4965373;28;20059;-51
2023/05/06 04:37:29;;;;;;;7.80;5.13;;;14.10;59.80;;;;;;4966055;28;20065;-47
2023/05/06 04:39:57;;;;;;;6.55;4.60;;;14.10;59.90;;;;;;4965916;28;20050;-48
2023/05/06 04:42:24;;;;;;;5.28;4.03;;;14.10;60.00;;;;;;4966289;28;20054;-46
2023/05/06 04:44:52;;;;;;;6.53;4.22;;;14.10;60.00;;;;;;4964368;28;20057;-42
2023/05/06 04:47:19;;;;;;;5.00;4.40;;;14.10;60.20;;;;;;4964683;28;20517;-41
2023/05/06 04:49:47;;;;;;;6.10;4.20;;;14.10;60.30;;;;;;4965801;28;20055;-41
2023/05/06 04:52:15;;;;;;;5.22;4.40;;;14.10;60.30;;;;;;4965353;28;21603;-40
2023/05/06 04:54:42;;;;;;;6.65;4.72;;;14.10;60.30;;;;;;4962777;28;20057;-40
2023/05/06 04:57:10;;;;;;;4.65;3.70;;;14.10;60.50;;;;;;4963435;28;20062;-40
2023/05/06 04:59:37;;;;;;;5.93;3.95;;;14.10;60.50;;;;;;4964001;28;21685;-41
2023/05/06 05:02:04;;;;;;;5.75;5.03;;;14.10;60.60;;;;;;4963956;28;20410;-41
2023/05/06 05:04:31;;;;;;;5.03;4.50;;;14.20;60.70;;;;;;4964696;28;20059;-41
2023/05/06 05:07:00;;;;;;;4.78;4.20;;;14.20;60.80;;;;;;4966305;28;20054;-44
2023/05/06 05:09:27;;;;;;;5.13;3.80;;;14.20;60.80;;;;;;4966446;28;20050;-38
2023/05/06 05:11:54;;;;;;;4.47;3.88;;;14.20;60.80;;;;;;4962556;28;22202;-41
2023/05/06 05:14:22;;;;;;;4.82;3.97;;;14.30;60.90;;;;;;4963930;28;20062;-37
2023/05/06 05:16:49;;;;;;;5.45;4.25;;;14.30;61.00;;;;;;4964088;28;20413;-39
2023/05/06 05:19:16;;;;;;;4.72;4.00;;;14.30;61.10;;;;;;4965672;28;20059;-38
2023/05/06 05:21:43;;;;;;;5.20;3.80;;;14.30;61.10;;;;;;4962791;28;20062;-40
2023/05/06 05:24:12;;;;;;;6.28;4.30;;;14.30;61.20;;;;;;4963464;28;20054;-37
2023/05/06 05:26:39;;;;;;;4.78;3.67;;;14.40;61.30;;;;;;4964732;28;20063;-40
2023/05/06 05:29:06;;;;;;;6.43;4.75;;;14.40;61.30;;;;;;4965126;28;20051;-41
2023/05/06 05:31:34;;;;;;;5.28;4.30;;;14.40;61.40;;;;;;4963138;28;20062;-43
2023/05/06 05:34:01;;;;;;;5.15;3.78;;;14.50;61.50;;;;;;4967206;28;20077;-42
2023/05/06 05:36:28;;;;;;;5.10;3.95;;;14.50;61.60;;;;;;4965463;28;20047;-38
2023/05/06 05:38:56;;;;;;;5.20;3.92;;;14.50;61.60;;;;;;4964152;28;20426;-39
2023/05/06 05:41:25;;;;;;;5.93;3.80;;;14.60;61.70;;;;;;4964885;28;20061;-40
2023/05/06 05:43:52;;;;;;;5.07;3.90;;;14.60;62.50;;;;;;4964588;28;20058;-42
2023/05/06 05:46:20;;;;;;;5.40;4.55;;;14.70;61.70;;;;;;4963310;28;20522;-42
2023/05/06 05:48:47;;;;;;;6.55;5.38;;;14.70;61.80;;;;;;4963902;28;20062;-39
2023/05/06 05:51:14;;;;;;;6.25;4.82;;;14.70;61.80;;;;;;4964312;28;20058;-39
2023/05/06 05:53:41;;;;;;;7.07;5.03;;;14.80;61.90;;;;;;4963305;28;20053;-42
2023/05/06 05:56:09;;;;;;;6.45;5.20;;;14.90;62.00;;;;;;4961152;28;20502;-44
2023/05/06 05:58:38;;;;;;;8.57;5.38;;;14.90;62.00;;;;;;4961783;28;20058;-43
2023/05/06 06:01:05;;;;;;;5.43;4.72;;;15.00;62.10;;;;;;4959609;28;20062;-44
2023/05/06 06:03:32;;;;;;;5.55;4.45;;;15.00;62.10;;;;;;4959637;28;20066;-42
2023/05/06 06:06:01;;;;;;;5.10;4.60;;;15.10;62.20;;;;;;4964250;28;20512;-43
2023/05/06 06:08:28;;;;;;;5.20;4.25;;;15.10;62.20;;;;;;4965593;28;20054;-40
2023/05/06 06:10:56;;;;;;;5.57;4.60;;;15.20;62.20;;;;;;4961215;28;20063;-43
2023/05/06 06:13:23;;;;;;;4.57;3.47;;;15.20;62.20;;;;;;4964000;28;20051;-40
2023/05/06 06:15:51;;;;;;;5.30;3.40;;;15.30;62.20;;;;;;4959381;28;20522;-45
2023/05/06 06:18:19;;;;;;;4.47;3.50;;;15.30;62.20;;;;;;4963452;28;20062;-42
2023/05/06 06:20:46;;;;;;;5.00;4.13;;;15.40;62.20;;;;;;4962096;28;20065;-41
2023/05/06 06:23:14;;;;;;;4.90;3.85;;;15.50;62.30;;;;;;4963603;28;20511;-43
2023/05/06 06:25:41;;;;;;;3.60;3.13;;;15.50;62.30;;;;;;4964834;28;20050;-41
2023/05/06 06:28:08;;;;;;;3.58;3.17;;;15.50;62.30;;;;;;4962798;28;20380;-44
2023/05/06 06:30:36;;;;;;;5.00;3.53;;;15.60;62.20;;;;;;4963300;28;20059;-40
2023/05/06 06:33:04;;;;;;;4.28;3.50;;;15.70;62.10;;;;;;4961176;28;21318;-43
2023/05/06 06:35:31;;;;;;;4.13;3.35;;;15.70;62.00;;;;;;4964117;28;20047;-43
2023/05/06 06:37:59;;;;;;;5.13;3.80;;;15.80;62.00;;;;;;4959867;28;20047;-40
2023/05/06 06:40:26;;;;;;;13.52;8.18;;;15.80;61.80;;;;;;4964094;28;20065;-39
2023/05/06 06:42:53;;;;;;;6.25;4.40;;;15.90;61.80;;;;;;4964695;28;20054;-42
2023/05/06 06:45:21;;;;;;;4.60;3.47;;;16.00;61.90;;;;;;4958787;28;20046;-45
2023/05/06 06:47:48;;;;;;;5.20;3.47;;;16.00;61.90;;;;;;4961855;28;20054;-42
2023/05/06 06:50:17;;;;;;;4.40;3.20;;;16.10;62.00;;;;;;4962696;28;20062;-43
2023/05/06 06:52:44;;;;;;;4.60;3.35;;;16.10;62.10;;;;;;4964624;28;20058;-48
2023/05/06 06:55:11;;;;;;;3.72;2.78;;;16.10;62.10;;;;;;4963955;28;20047;-43
2023/05/06 06:57:39;;;;;;;6.55;3.30;;;16.20;62.00;;;;;;4960819;28;20081;-42
2023/05/06 07:00:08;;;;;;;3.08;2.78;;;16.20;61.80;;;;;;4963586;28;20694;-40
2023/05/06 07:02:36;;;;;;;6.18;3.00;;;16.30;61.90;;;;;;4962994;28;20054;-40
2023/05/06 07:05:04;;;;;;;3.90;3.17;;;16.30;62.00;;;;;;4964842;28;20085;-46
2023/05/06 07:07:32;;;;;;;4.82;2.80;;;16.40;62.20;;;;;;4963923;28;20638;-40
2023/05/06 07:10:00;;;;;;;5.20;3.53;;;16.50;62.30;;;;;;4962585;28;20054;-43
2023/05/06 07:12:27;;;;;;;3.33;2.88;;;16.50;62.20;;;;;;4961731;28;20561;-41
2023/05/06 07:14:54;;;;;;;6.03;3.00;;;16.50;62.10;;;;;;4962518;28;20062;-41
2023/05/06 07:17:21;;;;;;;3.97;2.55;;;16.60;62.00;;;;;;4963176;28;20070;-43
2023/05/06 07:19:48;;;;;;;4.53;2.80;;;16.70;61.80;;;;;;4963825;28;20058;-42
2023/05/06 07:22:16;;;;;;;2.75;2.40;;;16.70;61.70;;;;;;4961550;28;20050;-42
2023/05/06 07:24:44;;;;;;;3.72;2.28;;;16.80;61.70;;;;;;4961426;28;20055;-43
2023/05/06 07:27:11;;;;;;;3.97;2.83;;;16.80;61.50;;;;;;4964551;28;20081;-41
2023/05/06 07:29:39;;;;;;;2.35;2.05;;;16.90;61.40;;;;;;4960527;28;20053;-42
2023/05/06 07:32:06;;;;;;;3.30;2.38;;;17.00;61.50;;;;;;4961350;28;20400;-42
2023/05/06 07:34:34;;;;;;;3.75;2.30;;;17.00;61.40;;;;;;4963019;28;20059;-41
2023/05/06 07:37:02;;;;;;;5.53;2.60;;;17.10;61.50;;;;;;4963243;28;20581;-46
2023/05/06 07:39:29;;;;;;;3.17;2.40;;;17.10;61.30;;;;;;4962366;28;20422;-43
2023/05/06 07:41:58;;;;;;;3.45;2.53;;;17.20;60.80;;;;;;4964844;28;20066;-39
2023/05/06 07:44:25;;;;;;;2.92;2.45;;;17.30;60.50;;;;;;4962057;28;20503;-42
2023/05/06 07:46:53;;;;;;;3.15;2.47;;;17.30;60.30;;;;;;4961237;28;20047;-39
2023/05/06 07:49:21;;;;;;;3.03;2.72;;;17.40;59.90;;;;;;4964994;28;20055;-44
2023/05/06 07:51:48;;;;;;;3.72;2.65;;;17.40;59.90;;;;;;4962253;28;20046;-40
2023/05/06 07:54:15;;;;;;;4.18;2.65;;;17.50;60.30;;;;;;4963061;28;20054;-45
2023/05/06 07:56:42;;;;;;;6.05;2.92;;;17.60;60.60;;;;;;4962815;28;20061;-42
2023/05/06 07:59:11;;;;;;;4.25;3.13;;;17.60;60.50;;;;;;4962889;28;20046;-42
2023/05/06 08:01:38;;;;;;;5.50;2.60;;;17.70;60.10;;;;;;4962438;28;20085;-43
2023/05/06 08:04:06;;;;;;;4.45;2.90;;;17.70;60.00;;;;;;4964421;28;20062;-39
2023/05/06 08:06:34;;;;;;;4.35;2.45;;;17.80;60.00;;;;;;4963508;28;20054;-46
2023/05/06 08:09:01;;;;;;;2.67;1.75;;;17.80;59.80;;;;;;4963288;28;20057;-46
2023/05/06 08:11:28;;;;;;;2.97;2.00;;;17.90;59.90;;;;;;4961813;28;20058;-44
2023/05/06 08:13:55;;;;;;;2.50;1.92;;;18.00;59.80;;;;;;4963398;28;20479;-41
2023/05/06 08:16:24;;;;;;;3.15;2.03;;;18.00;59.70;;;;;;4960330;28;20498;-43
2023/05/06 08:18:51;;;;;;;3.67;2.40;;;18.10;59.50;;;;;;4961788;28;20059;-41
2023/05/06 08:21:18;;;;;;;2.50;2.30;;;18.10;59.60;;;;;;4961551;28;20081;-41
2023/05/06 08:23:45;;;;;;;3.53;2.55;;;18.20;58.80;;;;;;4962417;28;20082;-39
2023/05/06 08:26:13;;;;;;;5.90;3.03;;;18.30;58.90;;;;;;4962268;28;20062;-40
2023/05/06 08:28:40;;;;;;;4.22;2.10;;;18.30;58.50;;;;;;4962119;28;20491;-41
2023/05/06 08:31:07;;;;;;;3.38;1.95;;;18.40;58.60;;;;;;4960610;28;20089;-39
2023/05/06 08:33:36;;;;;;;3.17;1.80;;;18.50;58.40;;;;;;4961914;28;20059;-42
2023/05/06 08:36:03;;;;;;;2.92;1.60;;;18.50;58.50;;;;;;4962164;28;20503;-47
2023/05/06 08:38:30;;;;;;;3.05;1.70;;;18.60;58.50;;;;;;4963066;28;20490;-41
2023/05/06 08:41:03;;;;;;;2.08;1.40;;;18.70;58.50;;;;;;4961150;28;20061;-42
2023/05/06 08:43:35;;;;;;;3.50;1.40;;;18.80;58.60;;;;;;4962357;28;20062;-39
2023/05/06 08:46:02;;;;;;;2.00;1.58;;;18.90;58.30;;;;;;4961604;28;20054;-41
2023/05/06 08:48:29;;;;;;;2.55;1.30;;;18.90;57.90;;;;;;4962628;28;20058;-45
2023/05/06 08:51:02;;;;;;;3.42;1.85;;;19.00;57.40;;;;;;4960543;28;20691;-40
2023/05/06 08:53:30;;;;;;;2.30;1.20;;;19.10;57.40;;;;;;4961717;28;20521;-45
2023/05/06 08:56:04;;;;;;;3.03;1.42;;;19.20;57.80;;;;;;4962681;28;20055;-43
2023/05/06 08:58:32;;;;;;;;;;;19.30;56.80;;;;;;4965818;28;20062;-46
2023/05/06 09:01:03;;;;;;;1.77;1.17;;;19.40;56.90;;;;;;4959217;28;19930;-43
2023/05/06 09:03:30;;;;;;;2.30;1.13;;;19.50;56.50;;;;;;4960777;28;20422;-42
2023/05/06 09:05:59;;;;;;;1.65;1.10;;;19.60;56.10;;;;;;4963515;28;20055;-42
2023/05/06 09:08:26;;;;;;;2.75;1.10;;;19.60;55.60;;;;;;4964080;28;20058;-40
2023/05/06 09:10:54;;;;;;;1.90;1.10;;;19.60;55.50;;;;;;4962992;28;20054;-42
2023/05/06 09:13:21;;;;;;;6.30;1.13;;;19.70;55.50;;;;;;4964964;28;20062;-45
2023/05/06 09:15:49;;;;;;;1.60;1.00;;;19.70;55.40;;;;;;4963501;28;20051;-41
2023/05/06 09:18:16;;;;;;;1.85;1.10;;;19.70;55.50;;;;;;4966005;28;20058;-43
2023/05/06 09:20:45;;;;;;;2.00;1.10;;;19.70;55.40;;;;;;4965257;28;20055;-42
2023/05/06 09:23:15;;;;;;;1.90;0.88;;;19.80;54.80;;;;;;4965140;28;20742;-44
2023/05/06 09:25:44;;;;;;;1.50;0.85;;;19.80;54.80;;;;;;4965040;28;20055;-41
2023/05/06 09:28:12;;;;;;;3.40;0.80;;;19.90;55.50;;;;;;4965370;28;20050;-45
2023/05/06 09:30:40;;;;;;;3.03;1.23;;;19.90;54.30;;;;;;4962638;28;20054;-40
2023/05/06 09:33:08;;;;;;;1.55;1.00;;;19.90;53.70;;;;;;4965394;28;20065;-40
2023/05/06 09:35:37;;;;;;;2.03;0.82;;;20.00;53.70;;;;;;4966095;28;20407;-39
2023/05/06 09:38:05;;;;;;;3.25;1.10;;;20.00;53.80;;;;;;4963869;28;20051;-40
2023/05/06 09:40:34;;;;;;;2.42;1.15;;;20.00;52.60;;;;;;4964786;28;20053;-39
2023/05/06 09:43:01;;;;;;;2.65;1.10;;;20.00;52.10;;;;;;4965515;28;20410;-41
2023/05/06 09:45:30;;;;;;;2.13;1.13;;;20.10;52.50;;;;;;4963914;28;20415;-41
2023/05/06 09:47:57;;;;;;;1.25;1.10;;;20.10;52.80;;;;;;4965258;28;20130;-42
2023/05/06 09:50:25;;;;;;;1.90;1.20;;;20.10;52.00;;;;;;4964731;28;20423;-40
2023/05/06 09:52:54;;;;;;;5.90;1.80;;;20.00;51.70;;;;;;4962555;28;20065;-42
2023/05/06 09:55:25;;;;;;;1.40;0.95;;;20.00;51.90;;;;;;4964923;28;20069;-39
2023/05/06 09:57:54;;;;;;;4.18;1.08;;;20.00;51.50;;;;;;4967086;28;20053;-45
2023/05/06 10:00:26;;;;;;;2.10;1.02;;;20.00;51.30;;;;;;4961897;28;20054;-42
2023/05/06 10:02:54;;;;;;;3.45;1.13;;;20.00;51.50;;;;;;4965025;28;20793;-40
2023/05/06 10:05:24;;;;;;;2.35;1.25;;;19.90;51.40;;;;;;4963037;28;20051;-44
2023/05/06 10:07:55;;;;;;;2.55;1.02;;;20.00;51.10;;;;;;4963978;28;20050;-42
2023/05/06 10:10:24;;;;;;;2.10;1.00;;;20.00;51.20;;;;;;4962292;28;20067;-40
2023/05/06 10:12:53;;;;;;;2.20;0.85;;;20.00;51.20;;;;;;4964254;28;20047;-40
2023/05/06 10:15:21;;;;;;;1.40;0.95;;;20.00;50.90;;;;;;4962466;28;20057;-44
2023/05/06 10:17:51;;;;;;;1.23;0.65;;;20.00;51.30;;;;;;4964963;28;20055;-43
2023/05/06 10:20:21;;;;;;;2.78;1.20;;;20.10;51.60;;;;;;4963511;28;20058;-44
2023/05/06 10:22:56;;;;;;;2.03;0.70;;;20.10;51.80;;;;;;4966441;28;20058;-41
2023/05/06 10:25:30;;;;;;;3.28;0.98;;;20.20;51.90;;;;;;4963944;28;20059;-45
2023/05/06 10:28:00;;;;;;;2.38;0.90;;;20.20;50.70;;;;;;4965397;28;20046;-44
2023/05/06 10:30:29;;;;;;;2.78;0.70;;;20.20;51.30;;;;;;4962536;28;20418;-41
2023/05/06 10:32:59;;;;;;;2.40;0.80;;;20.30;51.30;;;;;;4964418;28;20399;-43
2023/05/06 10:35:35;;;;;;;2.65;1.10;;;20.40;49.70;;;;;;4964592;28;20066;-42
2023/05/06 10:38:04;;;;;;;1.50;0.88;;;20.40;49.70;;;;;;4964092;28;20065;-40
2023/05/06 10:40:32;;;;;;;2.17;0.95;;;20.50;50.00;;;;;;4967555;28;20059;-40
2023/05/06 10:43:27;;;;;;;2.30;0.88;;;20.50;48.80;;;;;;4967593;28;20055;-41
2023/05/06 10:46:07;;;;;;;2.08;0.98;;;20.60;49.10;;;;;;4964861;28;20070;-39
2023/05/06 10:48:36;;;;;;;2.10;0.73;;;20.70;49.50;;;;;;4967208;28;20058;-48
2023/05/06 10:51:27;;;;;;;1.50;0.60;;;20.80;50.30;;;;;;4964575;28;20073;-46
2023/05/06 10:54:02;;;;;;;1.52;0.50;;;20.90;49.80;;;;;;4941403;28;20062;-41
2023/05/06 10:56:31;;;;;;;1.13;0.73;;;21.00;48.80;;;;;;4964691;28;20065;-51
2023/05/06 10:59:06;;;;;;;0.95;0.55;;;21.10;49.40;;;;;;4962752;28;20058;-47
2023/05/06 11:01:34;;;;;;;2.97;0.70;;;21.20;49.60;;;;;;4962247;28;20061;-46
2023/05/06 11:04:06;;;;;;;1.25;0.70;;;21.30;49.50;;;;;;4962735;28;20510;-48
2023/05/06 11:06:35;;;;;;;1.42;0.60;;;21.40;49.80;;;;;;4963168;28;20050;-45
2023/05/06 11:09:04;;;;;;;2.63;0.68;;;21.40;49.00;;;;;;4961433;28;20058;-44
2023/05/06 11:11:47;;;;;;;1.40;0.60;;;21.50;48.90;;;;;;4963930;28;20057;-48
2023/05/06 11:14:26;;;;;;;2.45;1.40;;;21.50;48.70;;;;;;4964385;28;20061;-48
2023/05/06 11:16:55;;;;;;;2.60;1.15;;;21.60;48.40;;;;;;4962643;28;20050;-46
2023/05/06 11:19:23;;;;;;;4.57;1.00;;;21.60;48.20;;;;;;4963002;28;20494;-49
2023/05/06 11:21:51;;;;;;;1.23;0.75;;;21.70;48.40;;;;;;4964335;28;20509;-45
2023/05/06 11:24:26;;;;;;;1.98;0.70;;;21.70;48.50;;;;;;4963519;28;20055;-47
2023/05/06 11:26:54;;;;;;;1.05;0.55;;;21.80;48.30;;;;;;4960382;28;20671;-46
2023/05/06 11:29:23;;;;;;;1.52;0.60;;;21.90;48.60;;;;;;4963357;28;20062;-45
2023/05/06 11:31:52;;;;;;;1.00;0.70;;;21.90;48.10;;;;;;4960074;28;20059;-48
2023/05/06 11:34:26;;;;;;;1.52;0.50;;;22.00;47.60;;;;;;4962794;28;20057;-47
2023/05/06 11:36:57;;;;;;;2.63;0.60;;;22.10;47.40;;;;;;4962609;28;20058;-48
2023/05/06 11:39:29;;;;;;;1.85;0.50;;;22.10;46.90;;;;;;4960790;28;20046;-49
2023/05/06 11:41:57;;;;;;;1.85;0.63;;;22.20;47.00;;;;;;4960732;28;20062;-48
2023/05/06 11:44:28;;;;;;;2.22;0.52;;;22.30;47.10;;;;;;4961274;28;20065;-46
2023/05/06 11:46:59;;;;;;;1.88;0.70;;;22.40;47.00;;;;;;4962548;28;20410;-46
2023/05/06 11:49:27;;;;;;;1.95;0.60;;;22.50;47.10;;;;;;4961049;28;20054;-47
2023/05/06 11:51:55;;;;;;;5.47;0.93;;;22.50;47.00;;;;;;4959424;28;20431;-48
2023/05/06 11:54:24;;;;;;;3.00;0.60;;;22.60;47.00;;;;;;4962912;28;20062;-44
2023/05/06 11:56:53;;;;;;;2.53;0.70;;;22.60;46.70;;;;;;4962126;28;20061;-48
2023/05/06 11:59:29;;;;;;;3.05;0.88;;;22.70;46.60;;;;;;4958637;28;20062;-47
2023/05/06 12:01:58;;;;;;;1.75;0.93;;;22.80;46.40;;;;;;4960740;28;20062;-45
2023/05/06 12:04:26;;;;;;;2.90;0.85;;;22.80;46.10;;;;;;4962103;28;20147;-46
2023/05/06 12:06:54;;;;;;;1.60;0.80;;;22.90;46.00;;;;;;4963494;28;20050;-47
2023/05/06 12:09:22;;;;;;;1.15;0.57;;;22.90;45.80;;;;;;4963367;28;20055;-46
2023/05/06 12:11:50;;;;;;;3.33;1.00;;;23.00;45.80;;;;;;4962399;28;20065;-47
2023/05/06 12:14:19;;;;;;;2.92;0.73;;;23.00;45.50;;;;;;4960848;28;20069;-46
2023/05/06 12:16:47;;;;;;;4.97;0.70;;;23.00;45.70;;;;;;4963006;28;20058;-45
2023/05/06 12:19:17;;;;;;;1.40;0.65;;;23.00;45.50;;;;;;4962860;28;20051;-45
2023/05/06 12:21:45;;;;;;;1.90;0.70;;;23.00;45.30;;;;;;4963147;28;20062;-47
2023/05/06 12:24:12;;;;;;;3.78;0.68;;;23.10;45.60;;;;;;4961935;28;20062;-47
2023/05/06 12:26:47;;;;;;;1.05;0.45;;;23.10;45.50;;;;;;4962959;28;20069;-50
2023/05/06 12:29:16;;;;;;;1.25;0.65;;;23.20;45.10;;;;;;4961053;28;20054;-49
2023/05/06 12:31:45;;;;;;;3.63;0.75;;;23.30;45.20;;;;;;4960284;28;20051;-50
2023/05/06 12:34:16;;;;;;;4.90;0.70;;;23.30;45.70;;;;;;4962296;28;20058;-48
2023/05/06 12:36:46;;;;;;;1.48;0.75;;;23.40;45.60;;;;;;4961230;28;20968;-50
2023/05/06 12:39:13;;;;;;;0.90;0.70;;;23.50;45.80;;;;;;4961191;28;20050;-44
2023/05/06 12:41:43;;;;;;;2.30;0.85;;;23.50;45.20;;;;;;4962527;28;20083;-45
2023/05/06 12:44:35;;;;;;;2.97;0.70;;;23.60;45.50;;;;;;4963829;28;20078;-44
2023/05/06 12:47:06;;;;;;;1.20;0.50;;;23.60;44.90;;;;;;4960247;28;20054;-46
2023/05/06 12:49:51;;;;;;;1.73;0.70;;;23.60;45.10;;;;;;4965634;28;20062;-49
2023/05/06 12:52:20;;;;;;;1.35;0.50;;;23.70;44.90;;;;;;4963800;28;20058;-47